Kaisei Maru — JD3114 — position and weather

sailwx.info

Track history (hours):
 
Tides and Currents Weather Stations Pressure Air Temp Water Temp Dewpoint Dewpoint Depression Visibility Wind Speed Wind Dir Waves Ship Positions

Kaisei Maru

Last reported at 2018-Sep-15 09:28 UTC. Time now 2018-Sep-19 10:43 UTC.
Position N 34°27' E 134°28'.

Length 52 m; draft 4 m.

Type: Tanker. MMSI: 431001837.

Date/timePositionNaut miles runAvg speedWind from/ knotsBaromVisibWave heightAir tempDewpointWater temp
2018-Sep-15 09:28N 34°27' E 134°28'410.5
2018-Sep-15 09:03N 34°29' E 134°33'110.1
2018-Sep-15 09:00N 34°29' E 134°33'510.2
2018-Sep-15 08:30N 34°31' E 134°39'510.4
2018-Sep-15 07:59N 34°33' E 134°45'610.5
2018-Sep-15 07:27N 34°35' E 134°52'510.6
2018-Sep-15 07:00N 34°37' E 134°57'5 9.3
2018-Sep-15 06:30N 34°37' E 135°03'5 9.6
2018-Sep-15 06:02N 34°36' E 135°08'010.9
2018-Sep-15 06:00N 34°36' E 135°09'510.3
2018-Sep-15 05:29N 34°38' E 135°15'410.1
2018-Sep-15 05:02N 34°39' E 135°20'010.2
2018-Sep-15 05:00N 34°39' E 135°20'4 7.9
2018-Sep-15 04:30N 34°42' E 135°24'0 0.0
2018-Sep-15 04:03N 34°42' E 135°24'0 0.0
2018-Sep-15 04:00N 34°42' E 135°24'0 0.0
2018-Sep-15 03:21N 34°42' E 135°24'0 0.0
2018-Sep-15 03:03N 34°42' E 135°24'0 0.1
2018-Sep-15 03:00N 34°42' E 135°24'0 0.0
2018-Sep-15 02:30N 34°42' E 135°24'0 0.0
2018-Sep-15 02:03N 34°42' E 135°24'0 0.1
2018-Sep-15 02:00N 34°42' E 135°24'0 0.0
2018-Sep-15 01:30N 34°42' E 135°24'0 0.0
2018-Sep-15 01:03N 34°42' E 135°24'0 0.0
2018-Sep-15 01:00N 34°42' E 135°24'0 0.0
2018-Sep-15 00:30N 34°42' E 135°24'0 0.0
2018-Sep-15 00:03N 34°42' E 135°24'0 0.1
2018-Sep-14 23:57N 34°42' E 135°24'0 0.0
2018-Sep-14 23:31N 34°42' E 135°24'0 0.0
2018-Sep-14 23:02N 34°42' E 135°24'0 0.0
2018-Sep-14 22:59N 34°42' E 135°24'0 0.0
2018-Sep-14 22:30N 34°42' E 135°24'1 1.3
2018-Sep-14 22:03N 34°41' E 135°24'0 9.7
2018-Sep-14 22:00N 34°41' E 135°23'2 4.5
2018-Sep-14 21:30N 34°39' E 135°21'0 0.0
2018-Sep-14 21:03N 34°39' E 135°21'0 0.0
2018-Sep-14 21:00N 34°39' E 135°21'0 0.0
2018-Sep-14 20:31N 34°39' E 135°21'0 0.0
2018-Sep-14 20:03N 34°39' E 135°21'0 0.0
2018-Sep-14 20:00N 34°39' E 135°21'0 0.0
2018-Sep-14 19:30N 34°39' E 135°21'0 0.0
2018-Sep-14 19:02N 34°39' E 135°21'0 0.0
2018-Sep-14 19:00N 34°39' E 135°21'0 0.0
2018-Sep-14 18:30N 34°39' E 135°21'0 0.0
2018-Sep-14 18:03N 34°39' E 135°21'0 0.0
2018-Sep-14 18:00N 34°39' E 135°21'0 0.0
2018-Sep-14 17:30N 34°39' E 135°21'0 0.0
2018-Sep-14 17:02N 34°39' E 135°21'0 0.0
2018-Sep-14 17:00N 34°39' E 135°21'0 0.0
2018-Sep-14 16:31N 34°39' E 135°21'0 0.0
2018-Sep-14 16:03N 34°39' E 135°21'0 0.0
2018-Sep-14 16:00N 34°39' E 135°21'0 0.0
2018-Sep-14 15:31N 34°39' E 135°21'0 0.0
2018-Sep-14 15:03N 34°39' E 135°21'0 0.0
2018-Sep-14 15:01N 34°39' E 135°21'0 0.0
2018-Sep-14 14:30N 34°39' E 135°21'0 0.0
2018-Sep-14 14:00N 34°39' E 135°21'0 0.0
2018-Sep-14 13:30N 34°39' E 135°21'0 0.0
2018-Sep-14 13:03N 34°39' E 135°21'0 0.1
2018-Sep-14 13:00N 34°39' E 135°21'0 0.0
2018-Sep-14 12:31N 34°39' E 135°21'0 0.0
2018-Sep-14 12:04N 34°39' E 135°21'0 0.0
2018-Sep-14 12:01N 34°39' E 135°21'1 1.7
2018-Sep-14 11:31N 34°39' E 135°21'4 9.9
2018-Sep-14 11:04N 34°37' E 135°16'1 9.9
2018-Sep-14 11:00N 34°37' E 135°15'5 9.3
2018-Sep-14 10:29N 34°39' E 135°10'0 0.8
2018-Sep-14 10:03N 34°39' E 135°10'0 0.0
2018-Sep-14 10:00N 34°39' E 135°10'0 0.0
2018-Sep-14 09:30N 34°39' E 135°10'0 0.0
2018-Sep-14 09:03N 34°39' E 135°10'0 0.0
2018-Sep-14 09:00N 34°39' E 135°10'0 0.0
2018-Sep-14 08:30N 34°39' E 135°10'0 0.0
2018-Sep-14 08:03N 34°39' E 135°10'0 0.0
2018-Sep-14 08:00N 34°39' E 135°10'0 0.0
2018-Sep-14 07:30N 34°39' E 135°10'0 0.0
2018-Sep-14 07:03N 34°39' E 135°10'0 0.0
2018-Sep-14 07:00N 34°39' E 135°10'0 0.0
2018-Sep-14 06:30N 34°39' E 135°10'0 0.0
2018-Sep-14 06:03N 34°39' E 135°10'0 0.0
2018-Sep-14 05:58N 34°39' E 135°10'0 0.0
2018-Sep-14 05:30N 34°39' E 135°10'0 0.0
2018-Sep-14 05:03N 34°39' E 135°10'0 0.0
2018-Sep-14 05:00N 34°39' E 135°10'0 0.0
2018-Sep-14 04:31N 34°39' E 135°10'0 0.0
2018-Sep-14 04:04N 34°39' E 135°10'0 0.1
2018-Sep-14 04:00N 34°39' E 135°10'4 7.0
2018-Sep-14 03:30N 34°39' E 135°14'511.8
2018-Sep-14 03:03N 34°40' E 135°20'111.9
2018-Sep-14 03:00N 34°40' E 135°21'3 6.8
2018-Sep-14 02:31N 34°42' E 135°24'0 0.5
2018-Sep-14 01:36N 34°42' E 135°23'0 0.0
2018-Sep-14 00:57N 34°42' E 135°23'0 0.0
2018-Sep-14 00:23N 34°42' E 135°23'0 0.0
2018-Sep-14 00:01N 34°42' E 135°23'0 0.0
2018-Sep-13 23:57N 34°42' E 135°23'0 0.0
2018-Sep-13 23:30N 34°42' E 135°23'0 0.0
2018-Sep-13 23:03N 34°42' E 135°23'0 0.0
2018-Sep-13 22:57N 34°42' E 135°23'0 0.0
2018-Sep-13 22:28N 34°42' E 135°23'0 0.0
2018-Sep-13 22:02N 34°42' E 135°23'0 0.8
2018-Sep-13 21:57N 34°42' E 135°24'0 0.9
2018-Sep-13 21:30N 34°42' E 135°24'3 6.2
2018-Sep-13 21:03N 34°41' E 135°21'1 9.9
2018-Sep-13 21:00N 34°41' E 135°20'5 9.9
2018-Sep-13 20:30N 34°41' E 135°14'2 4.0
2018-Sep-13 20:03N 34°41' E 135°12'0 0.0
2018-Sep-13 20:00N 34°41' E 135°12'0 0.0
2018-Sep-13 19:30N 34°41' E 135°12'0 0.0
2018-Sep-13 19:03N 34°41' E 135°12'0 0.0
2018-Sep-13 19:00N 34°41' E 135°12'0 0.0
2018-Sep-13 18:30N 34°41' E 135°12'0 0.0
2018-Sep-13 18:03N 34°41' E 135°12'0 0.0
2018-Sep-13 18:00N 34°41' E 135°12'0 0.0
2018-Sep-13 17:30N 34°41' E 135°12'0 0.0
2018-Sep-13 17:03N 34°41' E 135°12'0 0.0
2018-Sep-13 17:00N 34°41' E 135°12'0 0.0
2018-Sep-13 16:30N 34°41' E 135°12'0 0.0
2018-Sep-13 16:03N 34°41' E 135°12'0 0.0
2018-Sep-13 16:00N 34°41' E 135°12'0 0.0
2018-Sep-13 15:31N 34°41' E 135°12'0 0.0
2018-Sep-13 15:03N 34°41' E 135°12'0 0.0
2018-Sep-13 15:00N 34°41' E 135°12'0 0.0
2018-Sep-13 14:03N 34°41' E 135°12'0 0.0
2018-Sep-13 14:00N 34°41' E 135°12'0 0.0
2018-Sep-13 13:31N 34°41' E 135°12'0 0.0
2018-Sep-13 13:03N 34°41' E 135°12'0 0.0
2018-Sep-13 13:00N 34°41' E 135°12'0 0.0
2018-Sep-13 12:30N 34°41' E 135°12'0 0.0
2018-Sep-13 12:03N 34°41' E 135°12'0 0.0
2018-Sep-13 12:00N 34°41' E 135°12'0 0.0
2018-Sep-13 11:30N 34°41' E 135°12'0 0.0
2018-Sep-13 11:02N 34°41' E 135°12'0 0.0
2018-Sep-13 11:00N 34°41' E 135°12'0 0.0
2018-Sep-13 10:30N 34°41' E 135°12'0 0.0
2018-Sep-13 10:03N 34°41' E 135°12'0 0.0
2018-Sep-13 10:00N 34°41' E 135°12'0 0.0
2018-Sep-13 09:30N 34°41' E 135°12'0 0.0
2018-Sep-13 09:03N 34°41' E 135°12'0 0.0
2018-Sep-13 09:00N 34°41' E 135°12'0 0.0
2018-Sep-13 08:30N 34°41' E 135°12'0 0.0
2018-Sep-13 08:03N 34°41' E 135°12'0 0.0
2018-Sep-13 08:01N 34°41' E 135°12'0 0.0
2018-Sep-13 07:30N 34°41' E 135°12'0 0.0
2018-Sep-13 07:03N 34°41' E 135°12'0 0.0
2018-Sep-13 07:01N 34°41' E 135°12'0 0.0
2018-Sep-13 06:30N 34°41' E 135°12'0 0.0
2018-Sep-13 06:03N 34°41' E 135°12'0 1.1
2018-Sep-13 06:00N 34°41' E 135°12'4 7.9
2018-Sep-13 05:30N 34°39' E 135°16'510.1
2018-Sep-13 05:03N 34°34' E 135°17'110.4
2018-Sep-13 05:00N 34°34' E 135°17'510.4
2018-Sep-13 04:30N 34°29' E 135°19'3 6.4
2018-Sep-13 04:03N 34°26' E 135°19'0 0.0
2018-Sep-13 03:59N 34°26' E 135°19'0 0.0
2018-Sep-13 03:30N 34°26' E 135°19'0 0.0
2018-Sep-13 03:03N 34°26' E 135°19'0 0.1
2018-Sep-13 03:01N 34°26' E 135°19'0 0.0
2018-Sep-13 02:30N 34°26' E 135°19'0 0.0
2018-Sep-13 02:04N 34°26' E 135°19'0 0.0
2018-Sep-13 01:59N 34°26' E 135°19'0 0.0
2018-Sep-13 01:29N 34°26' E 135°19'0 0.0
2018-Sep-13 01:03N 34°26' E 135°19'0 0.0
2018-Sep-13 01:00N 34°26' E 135°19'0 0.0
2018-Sep-13 00:30N 34°26' E 135°19'0 0.0
2018-Sep-13 00:04N 34°26' E 135°19'0 0.0
2018-Sep-12 23:59N 34°26' E 135°19'0 0.0
2018-Sep-12 23:30N 34°26' E 135°19'0 0.2
2018-Sep-12 23:03N 34°26' E 135°19'0 1.5
2018-Sep-12 22:59N 34°26' E 135°19'1 1.5
2018-Sep-12 22:29N 34°27' E 135°19'0 0.0
2018-Sep-12 22:03N 34°27' E 135°19'0 0.2
2018-Sep-12 21:58N 34°27' E 135°19'4 7.7
2018-Sep-12 21:30N 34°29' E 135°16'511.2
2018-Sep-12 21:03N 34°34' E 135°12'010.7
2018-Sep-12 21:00N 34°34' E 135°12'510.6
2018-Sep-12 20:30N 34°35' E 135°05'1012.4
2018-Sep-12 19:41N 34°35' E 134°53'313.3
2018-Sep-12 19:27N 34°33' E 134°49'611.9
2018-Sep-12 18:55N 34°30' E 134°43'511.7
2018-Sep-12 18:30N 34°29' E 134°37'611.7
2018-Sep-12 18:02N 34°27' E 134°31'111.7
2018-Sep-12 17:59N 34°26' E 134°30'4 0.1
2018-Sep-11 06:26N 34°26' E 134°25'410.7
2018-Sep-11 06:03N 34°28' E 134°30'011.7
2018-Sep-11 06:00N 34°28' E 134°30'510.5
2018-Sep-11 05:30N 34°30' E 134°36'510.4
2018-Sep-11 05:02N 34°32' E 134°42'011.4
2018-Sep-11 05:00N 34°32' E 134°42'510.7
2018-Sep-11 04:30N 34°34' E 134°48'12 9.3
2018-Sep-11 03:12N 34°37' E 135°03'210.5
2018-Sep-11 02:58N 34°36' E 135°05'4 0.2
2018-Sep-10 04:03N 34°39' E 135°10'0 0.0
2018-Sep-10 03:57N 34°39' E 135°10'0 0.0
2018-Sep-10 03:30N 34°39' E 135°10'0 0.0
2018-Sep-10 03:04N 34°39' E 135°10'0 0.0
2018-Sep-10 03:00N 34°39' E 135°10'0 0.0
2018-Sep-10 02:30N 34°39' E 135°10'0 0.0
2018-Sep-10 02:03N 34°39' E 135°10'0 0.1
2018-Sep-10 02:00N 34°39' E 135°10'0 0.0
2018-Sep-10 01:30N 34°39' E 135°10'0 0.0
2018-Sep-10 01:03N 34°39' E 135°10'0 0.0
2018-Sep-10 01:01N 34°39' E 135°10'0 0.0
2018-Sep-10 00:30N 34°39' E 135°10'0 0.0
2018-Sep-10 00:03N 34°39' E 135°10'0 0.0
2018-Sep-09 23:59N 34°39' E 135°10'0 0.0
2018-Sep-09 23:30N 34°39' E 135°10'0 0.1
2018-Sep-09 23:03N 34°39' E 135°10'0 4.0
2018-Sep-09 23:00N 34°39' E 135°10'0 1.0
2018-Sep-09 22:30N 34°39' E 135°10'0 0.0
2018-Sep-09 22:03N 34°39' E 135°10'0 4.8
2018-Sep-09 22:00N 34°38' E 135°10'4 7.7
2018-Sep-09 21:30N 34°35' E 135°09'4 9.6
2018-Sep-09 21:03N 34°31' E 135°07'110.5
2018-Sep-09 21:00N 34°30' E 135°07'510.5
2018-Sep-09 20:30N 34°25' E 135°06'4 9.9
2018-Sep-09 20:03N 34°21' E 135°05'111.1
2018-Sep-09 20:01N 34°20' E 135°04'510.4
2018-Sep-09 19:31N 34°15' E 135°02'510.6
2018-Sep-09 19:03N 34°10' E 135°01'010.2
2018-Sep-09 19:00N 34°10' E 135°01'510.4
2018-Sep-09 18:30N 34°05' E 134°58'510.1
2018-Sep-09 18:03N 34°01' E 134°56'1 9.8
2018-Sep-09 18:00N 34°01' E 134°56'  
2018-Sep-05 11:22N 34°25' E 134°22'510.3
2018-Sep-05 10:56N 34°27' E 134°27'510.4
2018-Sep-05 10:30N 34°29' E 134°32'510.5
2018-Sep-05 10:03N 34°31' E 134°37'110.8
2018-Sep-05 10:00N 34°31' E 134°38'510.9
2018-Sep-05 09:30N 34°33' E 134°44'  
Track history (hours):
 
Tides and Currents Weather Stations Pressure Air Temp Water Temp Dewpoint Dewpoint Depression Visibility Wind Speed Wind Dir Waves Ship Positions

Kaisei Maru

Last reported at 2018-Sep-15 09:28 UTC. Time now 2018-Sep-19 10:43 UTC.
Position N 34°27' E 134°28'.

Length 52 m; draft 4 m.

Type: Tanker. MMSI: 431001837.

Date/timePositionNaut miles runAvg speedWind from/ knotsBaromVisibWave heightAir tempDewpointWater temp
2018-Sep-15 09:28N 34°27' E 134°28'410.5
2018-Sep-15 09:03N 34°29' E 134°33'110.1
2018-Sep-15 09:00N 34°29' E 134°33'510.2
2018-Sep-15 08:30N 34°31' E 134°39'510.4
2018-Sep-15 07:59N 34°33' E 134°45'610.5
2018-Sep-15 07:27N 34°35' E 134°52'510.6
2018-Sep-15 07:00N 34°37' E 134°57'5 9.3
2018-Sep-15 06:30N 34°37' E 135°03'5 9.6
2018-Sep-15 06:02N 34°36' E 135°08'010.9
2018-Sep-15 06:00N 34°36' E 135°09'510.3
2018-Sep-15 05:29N 34°38' E 135°15'410.1
2018-Sep-15 05:02N 34°39' E 135°20'010.2
2018-Sep-15 05:00N 34°39' E 135°20'4 7.9
2018-Sep-15 04:30N 34°42' E 135°24'0 0.0
2018-Sep-15 04:03N 34°42' E 135°24'0 0.0
2018-Sep-15 04:00N 34°42' E 135°24'0 0.0
2018-Sep-15 03:21N 34°42' E 135°24'0 0.0
2018-Sep-15 03:03N 34°42' E 135°24'0 0.1
2018-Sep-15 03:00N 34°42' E 135°24'0 0.0
2018-Sep-15 02:30N 34°42' E 135°24'0 0.0
2018-Sep-15 02:03N 34°42' E 135°24'0 0.1
2018-Sep-15 02:00N 34°42' E 135°24'0 0.0
2018-Sep-15 01:30N 34°42' E 135°24'0 0.0
2018-Sep-15 01:03N 34°42' E 135°24'0 0.0
2018-Sep-15 01:00N 34°42' E 135°24'0 0.0
2018-Sep-15 00:30N 34°42' E 135°24'0 0.0
2018-Sep-15 00:03N 34°42' E 135°24'0 0.1
2018-Sep-14 23:57N 34°42' E 135°24'0 0.0
2018-Sep-14 23:31N 34°42' E 135°24'0 0.0
2018-Sep-14 23:02N 34°42' E 135°24'0 0.0
2018-Sep-14 22:59N 34°42' E 135°24'0 0.0
2018-Sep-14 22:30N 34°42' E 135°24'1 1.3
2018-Sep-14 22:03N 34°41' E 135°24'0 9.7
2018-Sep-14 22:00N 34°41' E 135°23'2 4.5
2018-Sep-14 21:30N 34°39' E 135°21'0 0.0
2018-Sep-14 21:03N 34°39' E 135°21'0 0.0
2018-Sep-14 21:00N 34°39' E 135°21'0 0.0
2018-Sep-14 20:31N 34°39' E 135°21'0 0.0
2018-Sep-14 20:03N 34°39' E 135°21'0 0.0
2018-Sep-14 20:00N 34°39' E 135°21'0 0.0
2018-Sep-14 19:30N 34°39' E 135°21'0 0.0
2018-Sep-14 19:02N 34°39' E 135°21'0 0.0
2018-Sep-14 19:00N 34°39' E 135°21'0 0.0
2018-Sep-14 18:30N 34°39' E 135°21'0 0.0
2018-Sep-14 18:03N 34°39' E 135°21'0 0.0
2018-Sep-14 18:00N 34°39' E 135°21'0 0.0
2018-Sep-14 17:30N 34°39' E 135°21'0 0.0
2018-Sep-14 17:02N 34°39' E 135°21'0 0.0
2018-Sep-14 17:00N 34°39' E 135°21'0 0.0
2018-Sep-14 16:31N 34°39' E 135°21'0 0.0
2018-Sep-14 16:03N 34°39' E 135°21'0 0.0
2018-Sep-14 16:00N 34°39' E 135°21'0 0.0
2018-Sep-14 15:31N 34°39' E 135°21'0 0.0
2018-Sep-14 15:03N 34°39' E 135°21'0 0.0
2018-Sep-14 15:01N 34°39' E 135°21'0 0.0
2018-Sep-14 14:30N 34°39' E 135°21'0 0.0
2018-Sep-14 14:00N 34°39' E 135°21'0 0.0
2018-Sep-14 13:30N 34°39' E 135°21'0 0.0
2018-Sep-14 13:03N 34°39' E 135°21'0 0.1
2018-Sep-14 13:00N 34°39' E 135°21'0 0.0
2018-Sep-14 12:31N 34°39' E 135°21'0 0.0
2018-Sep-14 12:04N 34°39' E 135°21'0 0.0
2018-Sep-14 12:01N 34°39' E 135°21'1 1.7
2018-Sep-14 11:31N 34°39' E 135°21'4 9.9
2018-Sep-14 11:04N 34°37' E 135°16'1 9.9
2018-Sep-14 11:00N 34°37' E 135°15'5 9.3
2018-Sep-14 10:29N 34°39' E 135°10'0 0.8
2018-Sep-14 10:03N 34°39' E 135°10'0 0.0
2018-Sep-14 10:00N 34°39' E 135°10'0 0.0
2018-Sep-14 09:30N 34°39' E 135°10'0 0.0
2018-Sep-14 09:03N 34°39' E 135°10'0 0.0
2018-Sep-14 09:00N 34°39' E 135°10'0 0.0
2018-Sep-14 08:30N 34°39' E 135°10'0 0.0
2018-Sep-14 08:03N 34°39' E 135°10'0 0.0
2018-Sep-14 08:00N 34°39' E 135°10'0 0.0
2018-Sep-14 07:30N 34°39' E 135°10'0 0.0
2018-Sep-14 07:03N 34°39' E 135°10'0 0.0
2018-Sep-14 07:00N 34°39' E 135°10'0 0.0
2018-Sep-14 06:30N 34°39' E 135°10'0 0.0
2018-Sep-14 06:03N 34°39' E 135°10'0 0.0
2018-Sep-14 05:58N 34°39' E 135°10'0 0.0
2018-Sep-14 05:30N 34°39' E 135°10'0 0.0
2018-Sep-14 05:03N 34°39' E 135°10'0 0.0
2018-Sep-14 05:00N 34°39' E 135°10'0 0.0
2018-Sep-14 04:31N 34°39' E 135°10'0 0.0
2018-Sep-14 04:04N 34°39' E 135°10'0 0.1
2018-Sep-14 04:00N 34°39' E 135°10'4 7.0
2018-Sep-14 03:30N 34°39' E 135°14'511.8
2018-Sep-14 03:03N 34°40' E 135°20'111.9
2018-Sep-14 03:00N 34°40' E 135°21'3 6.8
2018-Sep-14 02:31N 34°42' E 135°24'0 0.5
2018-Sep-14 01:36N 34°42' E 135°23'0 0.0
2018-Sep-14 00:57N 34°42' E 135°23'0 0.0
2018-Sep-14 00:23N 34°42' E 135°23'0 0.0
2018-Sep-14 00:01N 34°42' E 135°23'0 0.0
2018-Sep-13 23:57N 34°42' E 135°23'0 0.0
2018-Sep-13 23:30N 34°42' E 135°23'0 0.0
2018-Sep-13 23:03N 34°42' E 135°23'0 0.0
2018-Sep-13 22:57N 34°42' E 135°23'0 0.0
2018-Sep-13 22:28N 34°42' E 135°23'0 0.0
2018-Sep-13 22:02N 34°42' E 135°23'0 0.8
2018-Sep-13 21:57N 34°42' E 135°24'0 0.9
2018-Sep-13 21:30N 34°42' E 135°24'3 6.2
2018-Sep-13 21:03N 34°41' E 135°21'1 9.9
2018-Sep-13 21:00N 34°41' E 135°20'5 9.9
2018-Sep-13 20:30N 34°41' E 135°14'2 4.0
2018-Sep-13 20:03N 34°41' E 135°12'0 0.0
2018-Sep-13 20:00N 34°41' E 135°12'0 0.0
2018-Sep-13 19:30N 34°41' E 135°12'0 0.0
2018-Sep-13 19:03N 34°41' E 135°12'0 0.0
2018-Sep-13 19:00N 34°41' E 135°12'0 0.0
2018-Sep-13 18:30N 34°41' E 135°12'0 0.0
2018-Sep-13 18:03N 34°41' E 135°12'0 0.0
2018-Sep-13 18:00N 34°41' E 135°12'0 0.0
2018-Sep-13 17:30N 34°41' E 135°12'0 0.0
2018-Sep-13 17:03N 34°41' E 135°12'0 0.0
2018-Sep-13 17:00N 34°41' E 135°12'0 0.0
2018-Sep-13 16:30N 34°41' E 135°12'0 0.0
2018-Sep-13 16:03N 34°41' E 135°12'0 0.0
2018-Sep-13 16:00N 34°41' E 135°12'0 0.0
2018-Sep-13 15:31N 34°41' E 135°12'0 0.0
2018-Sep-13 15:03N 34°41' E 135°12'0 0.0
2018-Sep-13 15:00N 34°41' E 135°12'0 0.0
2018-Sep-13 14:03N 34°41' E 135°12'0 0.0
2018-Sep-13 14:00N 34°41' E 135°12'0 0.0
2018-Sep-13 13:31N 34°41' E 135°12'0 0.0
2018-Sep-13 13:03N 34°41' E 135°12'0 0.0
2018-Sep-13 13:00N 34°41' E 135°12'0 0.0
2018-Sep-13 12:30N 34°41' E 135°12'0 0.0
2018-Sep-13 12:03N 34°41' E 135°12'0 0.0
2018-Sep-13 12:00N 34°41' E 135°12'0 0.0
2018-Sep-13 11:30N 34°41' E 135°12'0 0.0
2018-Sep-13 11:02N 34°41' E 135°12'0 0.0
2018-Sep-13 11:00N 34°41' E 135°12'0 0.0
2018-Sep-13 10:30N 34°41' E 135°12'0 0.0
2018-Sep-13 10:03N 34°41' E 135°12'0 0.0
2018-Sep-13 10:00N 34°41' E 135°12'0 0.0
2018-Sep-13 09:30N 34°41' E 135°12'0 0.0
2018-Sep-13 09:03N 34°41' E 135°12'0 0.0
2018-Sep-13 09:00N 34°41' E 135°12'0 0.0
2018-Sep-13 08:30N 34°41' E 135°12'0 0.0
2018-Sep-13 08:03N 34°41' E 135°12'0 0.0
2018-Sep-13 08:01N 34°41' E 135°12'0 0.0
2018-Sep-13 07:30N 34°41' E 135°12'0 0.0
2018-Sep-13 07:03N 34°41' E 135°12'0 0.0
2018-Sep-13 07:01N 34°41' E 135°12'0 0.0
2018-Sep-13 06:30N 34°41' E 135°12'0 0.0
2018-Sep-13 06:03N 34°41' E 135°12'0 1.1
2018-Sep-13 06:00N 34°41' E 135°12'4 7.9
2018-Sep-13 05:30N 34°39' E 135°16'510.1
2018-Sep-13 05:03N 34°34' E 135°17'110.4
2018-Sep-13 05:00N 34°34' E 135°17'510.4
2018-Sep-13 04:30N 34°29' E 135°19'3 6.4
2018-Sep-13 04:03N 34°26' E 135°19'0 0.0
2018-Sep-13 03:59N 34°26' E 135°19'0 0.0
2018-Sep-13 03:30N 34°26' E 135°19'0 0.0
2018-Sep-13 03:03N 34°26' E 135°19'0 0.1
2018-Sep-13 03:01N 34°26' E 135°19'0 0.0
2018-Sep-13 02:30N 34°26' E 135°19'0 0.0
2018-Sep-13 02:04N 34°26' E 135°19'0 0.0
2018-Sep-13 01:59N 34°26' E 135°19'0 0.0
2018-Sep-13 01:29N 34°26' E 135°19'0 0.0
2018-Sep-13 01:03N 34°26' E 135°19'0 0.0
2018-Sep-13 01:00N 34°26' E 135°19'0 0.0
2018-Sep-13 00:30N 34°26' E 135°19'0 0.0
2018-Sep-13 00:04N 34°26' E 135°19'0 0.0
2018-Sep-12 23:59N 34°26' E 135°19'0 0.0
2018-Sep-12 23:30N 34°26' E 135°19'0 0.2
2018-Sep-12 23:03N 34°26' E 135°19'0 1.5
2018-Sep-12 22:59N 34°26' E 135°19'1 1.5
2018-Sep-12 22:29N 34°27' E 135°19'0 0.0
2018-Sep-12 22:03N 34°27' E 135°19'0 0.2
2018-Sep-12 21:58N 34°27' E 135°19'4 7.7
2018-Sep-12 21:30N 34°29' E 135°16'511.2
2018-Sep-12 21:03N 34°34' E 135°12'010.7
2018-Sep-12 21:00N 34°34' E 135°12'510.6
2018-Sep-12 20:30N 34°35' E 135°05'1012.4
2018-Sep-12 19:41N 34°35' E 134°53'313.3
2018-Sep-12 19:27N 34°33' E 134°49'611.9
2018-Sep-12 18:55N 34°30' E 134°43'511.7
2018-Sep-12 18:30N 34°29' E 134°37'611.7
2018-Sep-12 18:02N 34°27' E 134°31'111.7
2018-Sep-12 17:59N 34°26' E 134°30'4 0.1
2018-Sep-11 06:26N 34°26' E 134°25'410.7
2018-Sep-11 06:03N 34°28' E 134°30'011.7
2018-Sep-11 06:00N 34°28' E 134°30'510.5
2018-Sep-11 05:30N 34°30' E 134°36'510.4
2018-Sep-11 05:02N 34°32' E 134°42'011.4
2018-Sep-11 05:00N 34°32' E 134°42'510.7
2018-Sep-11 04:30N 34°34' E 134°48'12 9.3
2018-Sep-11 03:12N 34°37' E 135°03'210.5
2018-Sep-11 02:58N 34°36' E 135°05'4 0.2
2018-Sep-10 04:03N 34°39' E 135°10'0 0.0
2018-Sep-10 03:57N 34°39' E 135°10'0 0.0
2018-Sep-10 03:30N 34°39' E 135°10'0 0.0
2018-Sep-10 03:04N 34°39' E 135°10'0 0.0
2018-Sep-10 03:00N 34°39' E 135°10'0 0.0
2018-Sep-10 02:30N 34°39' E 135°10'0 0.0
2018-Sep-10 02:03N 34°39' E 135°10'0 0.1
2018-Sep-10 02:00N 34°39' E 135°10'0 0.0
2018-Sep-10 01:30N 34°39' E 135°10'0 0.0
2018-Sep-10 01:03N 34°39' E 135°10'0 0.0
2018-Sep-10 01:01N 34°39' E 135°10'0 0.0
2018-Sep-10 00:30N 34°39' E 135°10'0 0.0
2018-Sep-10 00:03N 34°39' E 135°10'0 0.0
2018-Sep-09 23:59N 34°39' E 135°10'0 0.0
2018-Sep-09 23:30N 34°39' E 135°10'0 0.1
2018-Sep-09 23:03N 34°39' E 135°10'0 4.0
2018-Sep-09 23:00N 34°39' E 135°10'0 1.0
2018-Sep-09 22:30N 34°39' E 135°10'0 0.0
2018-Sep-09 22:03N 34°39' E 135°10'0 4.8
2018-Sep-09 22:00N 34°38' E 135°10'4 7.7
2018-Sep-09 21:30N 34°35' E 135°09'4 9.6
2018-Sep-09 21:03N 34°31' E 135°07'110.5
2018-Sep-09 21:00N 34°30' E 135°07'510.5
2018-Sep-09 20:30N 34°25' E 135°06'4 9.9
2018-Sep-09 20:03N 34°21' E 135°05'111.1
2018-Sep-09 20:01N 34°20' E 135°04'510.4
2018-Sep-09 19:31N 34°15' E 135°02'510.6
2018-Sep-09 19:03N 34°10' E 135°01'010.2
2018-Sep-09 19:00N 34°10' E 135°01'510.4
2018-Sep-09 18:30N 34°05' E 134°58'510.1
2018-Sep-09 18:03N 34°01' E 134°56'1 9.8
2018-Sep-09 18:00N 34°01' E 134°56'  
2018-Sep-05 11:22N 34°25' E 134°22'510.3
2018-Sep-05 10:56N 34°27' E 134°27'510.4
2018-Sep-05 10:30N 34°29' E 134°32'510.5
2018-Sep-05 10:03N 34°31' E 134°37'110.8
2018-Sep-05 10:00N 34°31' E 134°38'510.9
2018-Sep-05 09:30N 34°33' E 134°44'  

Dump ship's entire track history